Perry, SC

10:19 AM EDT on October 20, 2014 (GMT -0400)
Pendleton Field | Change Station
CLOSE
Current Station
Personal Weather Station
Location: Swansea, SC
Elevation: 354 ft
Nearby Weather Stations

Elev 354 ft 33.69 °N, 81.23 °W | Updated 3 seconds ago

Clear
Clear
62.8 °F
Feels Like 62.8 °F
N
2.2
Wind Variable Wind from NW
Gusts 3.1 mph

Today
High -- | Low -- °F
--% Chance of Precip.
Yesterday
High -- | Low -- °F
Precip. -- in
7:33 AM 6:45 PM
Waning Crescent, 11% visible
Pressure 30.17 in
Visibility 10.0 miles
Clouds Clear
Dew Point 58 °F
Humidity 84%
Rainfall 0.00 in
Snow Depth Not available.
UV 3 out of 12
Pollen 3.10 out of 12
Ozone Good
PM2.5 Good
Flu Activity Sporadic
METAR KAIK 201415Z AUTO 00000KT 10SM CLR 15/12 A3017 RMK AO2 PNO

More Conditions Fewer Conditions

Pressure 30.17 in
Visibility 10.0 miles
Clouds Clear
Dew Point 58 °F
Humidity 84%
Rainfall 0.00 in
Snow Depth Not available.
UV 3 out of 12
Pollen 3.10 out of 12
Ozone Good
PM2.5 Good
Flu Activity Sporadic
METAR KAIK 201415Z AUTO 00000KT 10SM CLR 15/12 A3017 RMK AO2 PNO

More Conditions Fewer Conditions

10-Day Weather Forecast

Almanac

Astronomy

Oct. 20, 2014 Rise Set
Actual Time 7:33 AM EDT 6:45 PM EDT
Civil Twilight 7:08 AM EDT 7:10 PM EDT
Nautical Twilight 6:39 AM EDT 7:39 PM EDT
Astronomical Twilight 6:10 AM EDT 8:08 PM EDT
Moon 4:29 AM EDT 4:59 PM EDT
Length of Visible Light 12h 02m
Length of Day
11h 11m
Waning Crescent, 11% of the Moon is Illuminated
Today
Waning Crescent
Oct 23
New
Oct 30
First Quarter
Nov 6
Full
Nov 14
Last Quarter

Today's Extremes

State Highs State Lows

Community

WunderPhotos

Upload Photos

1,763,388 photos uploaded!

WunderBlogs® & News

By Dr. Jeff Masters
Director of Meteorology, Weather Underground
By Kari Strenfel
Meteorologist, Weather Underground
By Christopher C. Burt
Weather Historian, Weather Underground
October 20, 2014
October 20, 2014
October 20, 2014

Nearby

Air Quality

  Air Quality AQ Index Pollutant
Yesterday Good
OZONE
Yesterday Good
PM2.5
Current Good
PM2.5
Current Good
OZONE

Snow Depth

Station Depth Elevation
No new snow has been reported.

Earthquake Activity

City Distance Mag. Time & Date
No recent earthquake activity has been reported nearby.
Minimum magnitude displayed is 2.5.

Coastal Water Temperatures

Place Temperature
No Stations Reporting

Nearby Weather Stations